createdAt,value
2023-04-21T00:02:25.355Z,5.90
2023-04-21T00:04:52.438Z,6.23
2023-04-21T00:07:20.265Z,6.07
2023-04-21T00:09:47.304Z,6.27
2023-04-21T00:12:14.185Z,6.03
2023-04-21T00:14:40.831Z,5.90
2023-04-21T00:17:07.512Z,5.77
2023-04-21T00:19:35.250Z,6.13
2023-04-21T00:22:04.518Z,7.03
2023-04-21T00:24:31.180Z,5.53
2023-04-21T00:26:57.830Z,5.50
2023-04-21T00:29:24.567Z,5.43
2023-04-21T00:31:51.325Z,5.83
2023-04-21T00:34:18.051Z,5.50
2023-04-21T00:36:44.723Z,5.60
2023-04-21T00:39:11.552Z,4.70
2023-04-21T00:41:42.598Z,5.37
2023-04-21T00:44:10.528Z,5.70
2023-04-21T00:46:38.572Z,5.63
2023-04-21T00:49:07.708Z,5.43
2023-04-21T00:51:36.163Z,5.40
2023-04-21T00:54:05.729Z,5.63
2023-04-21T00:56:34.800Z,6.00
2023-04-21T00:59:02.471Z,5.67
2023-04-21T01:01:30.898Z,5.00
2023-04-21T01:03:59.549Z,5.67
2023-04-21T01:06:34.229Z,5.20
2023-04-21T01:09:01.798Z,5.57
2023-04-21T01:11:28.584Z,5.90
2023-04-21T01:13:55.792Z,4.83
2023-04-21T01:16:24.927Z,5.00
2023-04-21T01:18:55.296Z,5.30
2023-04-21T01:21:22.394Z,4.63
2023-04-21T01:23:49.223Z,5.17
2023-04-21T01:26:21.282Z,4.70
2023-04-21T01:28:48.858Z,5.07
2023-04-21T01:31:16.960Z,4.97
2023-04-21T01:33:44.624Z,4.83
2023-04-21T01:36:11.250Z,4.57
2023-04-21T01:38:40.393Z,5.50
2023-04-21T01:41:07.243Z,5.23
2023-04-21T01:43:34.592Z,5.43
2023-04-21T01:46:01.353Z,5.17
2023-04-21T01:48:28.162Z,5.00
2023-04-21T01:50:54.896Z,4.93
2023-04-21T01:53:21.645Z,5.40
2023-04-21T01:55:48.337Z,4.83
2023-04-21T01:58:15.116Z,5.07
2023-04-21T02:00:41.806Z,5.47
2023-04-21T02:03:08.579Z,4.57
2023-04-21T02:05:35.355Z,4.97
2023-04-21T02:08:02.078Z,4.50
2023-04-21T02:10:28.818Z,4.27
2023-04-21T02:12:55.581Z,5.10
2023-04-21T02:15:22.282Z,4.77
2023-04-21T02:17:49.009Z,4.60
2023-04-21T02:20:15.962Z,5.17
2023-04-21T02:22:42.650Z,4.40
2023-04-21T02:25:09.635Z,4.53
2023-04-21T02:27:36.410Z,4.70
2023-04-21T02:30:07.538Z,4.70
2023-04-21T02:32:34.422Z,4.80
2023-04-21T02:35:01.744Z,4.90
2023-04-21T02:37:29.046Z,4.33
2023-04-21T02:39:55.841Z,4.57
2023-04-21T02:42:22.732Z,4.53
2023-04-21T02:44:49.658Z,4.47
2023-04-21T02:47:17.052Z,4.47
2023-04-21T02:49:44.116Z,5.07
2023-04-21T02:52:10.727Z,4.40
2023-04-21T02:54:37.463Z,4.23
2023-04-21T02:57:15.448Z,4.30
2023-04-21T02:59:42.145Z,5.03
2023-04-21T03:02:09.087Z,4.70
2023-04-21T03:04:36.276Z,4.63
2023-04-21T03:07:03.054Z,4.90
2023-04-21T03:09:29.750Z,4.67
2023-04-21T03:11:56.524Z,4.43
2023-04-21T03:14:23.302Z,4.23
2023-04-21T03:16:50.039Z,4.40
2023-04-21T03:19:20.987Z,4.40
2023-04-21T03:21:47.925Z,4.70
2023-04-21T03:24:14.710Z,4.63
2023-04-21T03:26:41.501Z,5.00
2023-04-21T03:29:08.205Z,4.30
2023-04-21T03:31:34.953Z,4.07
2023-04-21T03:34:01.711Z,3.73
2023-04-21T03:36:28.358Z,3.80
2023-04-21T03:38:56.450Z,4.43
2023-04-21T03:41:25.962Z,4.17
2023-04-21T03:43:53.030Z,4.10
2023-04-21T03:46:21.311Z,4.00
2023-04-21T03:48:48.466Z,4.17
2023-04-21T03:51:17.830Z,4.93
2023-04-21T03:53:44.745Z,4.00
2023-04-21T03:56:11.508Z,3.90
2023-04-21T03:58:38.204Z,4.50
2023-04-21T04:01:06.999Z,3.90
2023-04-21T04:03:34.588Z,4.20
2023-04-21T04:06:04.030Z,4.40
2023-04-21T04:08:31.543Z,3.70
2023-04-21T04:10:58.373Z,4.03
2023-04-21T04:13:26.511Z,4.30
2023-04-21T04:15:53.791Z,5.30
2023-04-21T04:18:21.033Z,3.90
2023-04-21T04:20:47.807Z,3.80
2023-04-21T04:23:14.494Z,4.43
2023-04-21T04:25:41.216Z,3.93
2023-04-21T04:28:08.002Z,4.13
2023-04-21T04:30:35.418Z,4.37
2023-04-21T04:33:02.673Z,4.70
2023-04-21T04:35:29.496Z,3.90
2023-04-21T04:37:57.106Z,3.93
2023-04-21T04:40:23.840Z,4.27
2023-04-21T04:42:51.585Z,4.00
2023-04-21T04:45:22.068Z,4.03
2023-04-21T04:47:51.966Z,3.93
2023-04-21T04:50:18.725Z,4.30
2023-04-21T04:52:47.193Z,3.93
2023-04-21T04:55:14.322Z,4.13
2023-04-21T04:57:41.325Z,3.83
2023-04-21T05:00:11.421Z,4.17
2023-04-21T05:02:38.774Z,3.67
2023-04-21T05:05:07.118Z,4.60
2023-04-21T05:07:35.074Z,3.90
2023-04-21T05:10:02.541Z,3.73
2023-04-21T05:12:29.331Z,4.00
2023-04-21T05:14:56.167Z,3.97
2023-04-21T05:17:22.839Z,3.63
2023-04-21T05:19:49.612Z,4.13
2023-04-21T05:22:16.266Z,3.70
2023-04-21T05:24:44.050Z,4.27
2023-04-21T05:27:10.731Z,3.80
2023-04-21T05:29:37.864Z,3.97
2023-04-21T05:32:05.671Z,3.80
2023-04-21T05:34:32.529Z,3.80
2023-04-21T05:36:59.210Z,3.87
2023-04-21T05:39:27.834Z,3.77
2023-04-21T05:41:54.608Z,4.20
2023-04-21T05:44:21.649Z,3.77
2023-04-21T05:46:48.481Z,3.93
2023-04-21T05:49:15.150Z,3.77
2023-04-21T05:51:41.797Z,3.70
2023-04-21T05:54:08.543Z,3.50
2023-04-21T05:56:35.260Z,3.73
2023-04-21T05:59:01.971Z,3.50
2023-04-21T06:01:28.772Z,3.40
2023-04-21T06:03:56.923Z,4.03
2023-04-21T06:06:25.667Z,3.50
2023-04-21T06:08:52.433Z,3.70
2023-04-21T06:11:19.303Z,3.27
2023-04-21T06:13:45.999Z,3.33
2023-04-21T06:16:12.774Z,3.67
2023-04-21T06:18:39.409Z,3.87
2023-04-21T06:21:06.129Z,3.57
2023-04-21T06:23:33.356Z,4.37
2023-04-21T06:26:07.263Z,3.80
2023-04-21T06:28:35.696Z,3.70
2023-04-21T06:31:04.895Z,3.70
2023-04-21T06:33:33.739Z,4.00
2023-04-21T06:36:00.610Z,3.77
2023-04-21T06:38:27.507Z,3.33
2023-04-21T06:40:54.377Z,3.17
2023-04-21T06:43:21.142Z,3.70
2023-04-21T06:45:47.904Z,3.37
2023-04-21T06:48:14.647Z,3.70
2023-04-21T06:50:44.263Z,3.63
2023-04-21T06:53:31.570Z,4.10
2023-04-21T06:55:58.733Z,3.83
2023-04-21T06:58:27.913Z,3.57
2023-04-21T07:00:54.708Z,4.13
2023-04-21T07:03:21.623Z,4.17
2023-04-21T07:05:48.436Z,3.77
2023-04-21T07:08:15.250Z,4.17
2023-04-21T07:10:42.394Z,4.20
2023-04-21T07:13:10.114Z,3.60
2023-04-21T07:15:36.955Z,4.43
2023-04-21T07:18:03.898Z,4.13
2023-04-21T07:20:30.633Z,4.40
2023-04-21T07:22:57.410Z,4.30
2023-04-21T07:25:24.432Z,4.40
2023-04-21T07:27:51.172Z,5.10
2023-04-21T07:30:18.215Z,4.90
2023-04-21T07:32:45.060Z,4.20
2023-04-21T07:35:11.805Z,5.00
2023-04-21T07:37:40.053Z,5.40
2023-04-21T07:40:11.613Z,4.77
2023-04-21T07:42:38.600Z,5.10
2023-04-21T07:45:05.693Z,5.17
2023-04-21T07:47:33.537Z,5.30
2023-04-21T07:50:00.556Z,4.10
2023-04-21T07:52:27.456Z,4.37
2023-04-21T07:54:54.190Z,4.97
2023-04-21T07:57:20.976Z,4.50
2023-04-21T07:59:47.740Z,4.67
2023-04-21T08:02:14.481Z,4.60
2023-04-21T08:04:41.425Z,4.90
2023-04-21T08:07:10.088Z,4.63
2023-04-21T08:09:36.940Z,4.60
2023-04-21T08:12:04.322Z,4.40
2023-04-21T08:14:32.305Z,4.63
2023-04-21T08:16:59.654Z,4.87
2023-04-21T08:19:26.434Z,4.40
2023-04-21T08:21:53.213Z,4.63
2023-04-21T08:24:20.412Z,4.80
2023-04-21T08:26:47.376Z,4.93
2023-04-21T08:29:14.167Z,4.77
2023-04-21T08:31:41.354Z,5.03
2023-04-21T08:34:08.292Z,5.27
2023-04-21T08:36:35.187Z,5.00
2023-04-21T08:39:02.166Z,5.23
2023-04-21T08:41:29.016Z,5.00
2023-04-21T08:43:55.773Z,4.93
2023-04-21T08:46:23.866Z,4.37
2023-04-21T08:48:51.119Z,5.30
2023-04-21T08:51:23.827Z,4.60
2023-04-21T08:53:50.651Z,5.00
2023-04-21T08:56:17.627Z,4.37
2023-04-21T08:58:44.349Z,5.07
2023-04-21T09:01:12.195Z,5.60
2023-04-21T09:03:39.820Z,5.37
2023-04-21T09:06:09.772Z,4.90
2023-04-21T09:08:43.617Z,4.67
2023-04-21T09:11:14.521Z,4.63
2023-04-21T09:13:43.000Z,5.20
2023-04-21T09:16:18.545Z,4.70
2023-04-21T09:18:45.311Z,4.97
2023-04-21T09:21:21.279Z,4.97
2023-04-21T09:23:50.188Z,4.90
2023-04-21T09:26:18.664Z,5.10
2023-04-21T09:28:47.361Z,5.13
2023-04-21T09:31:19.958Z,5.63
2023-04-21T09:33:57.922Z,5.40
2023-04-21T09:36:29.068Z,5.57
2023-04-21T09:41:33.005Z,5.67
2023-04-21T09:44:04.672Z,5.60
2023-04-21T09:46:36.261Z,5.60
2023-04-21T09:49:04.446Z,5.67
2023-04-21T09:52:05.315Z,5.47
2023-04-21T09:54:29.795Z,5.83
2023-04-21T09:57:00.215Z,5.70
2023-04-21T09:59:30.839Z,5.70
2023-04-21T10:02:00.044Z,5.47
2023-04-21T10:04:32.425Z,5.37
2023-04-21T10:07:03.506Z,5.00
2023-04-21T10:09:51.184Z,5.37
2023-04-21T10:12:19.511Z,5.20
2023-04-21T10:14:51.422Z,5.70
2023-04-21T10:17:18.266Z,4.90
2023-04-21T10:19:59.958Z,5.40
2023-04-21T10:22:29.530Z,5.03
2023-04-21T10:24:57.346Z,5.00
2023-04-21T10:27:39.595Z,4.93
2023-04-21T10:30:23.779Z,5.33
2023-04-21T10:33:06.456Z,4.97
2023-04-21T10:35:59.264Z,6.50
2023-04-21T10:38:41.593Z,4.97
2023-04-21T10:41:29.106Z,4.83
2023-04-21T10:44:12.187Z,4.90
2023-04-21T10:46:50.708Z,5.03
2023-04-21T10:49:25.641Z,5.80
2023-04-21T10:51:59.207Z,5.13
2023-04-21T10:54:28.623Z,4.67
2023-04-21T10:56:56.644Z,5.60
2023-04-21T10:59:24.870Z,5.00
2023-04-21T11:01:53.782Z,5.13
2023-04-21T11:04:23.176Z,4.40
2023-04-21T11:07:05.555Z,4.70
2023-04-21T11:09:32.478Z,4.97
2023-04-21T11:12:04.921Z,5.40
2023-04-21T11:14:31.622Z,5.43
2023-04-21T11:16:58.457Z,5.30
2023-04-21T11:19:26.141Z,5.43
2023-04-21T11:21:55.877Z,5.30
2023-04-21T11:24:22.787Z,5.43
2023-04-21T11:26:49.715Z,5.30
2023-04-21T11:29:17.376Z,5.53
2023-04-21T11:31:47.929Z,5.63
2023-04-21T11:34:16.207Z,5.70
2023-04-21T11:36:44.764Z,5.33
2023-04-21T11:39:19.571Z,5.07
2023-04-21T11:41:50.715Z,5.40
2023-04-21T11:44:37.023Z,5.07
2023-04-21T11:47:17.290Z,5.40
2023-04-21T11:49:58.506Z,5.40
2023-04-21T11:52:25.196Z,5.03
2023-04-21T11:55:03.512Z,5.03
2023-04-21T11:57:31.433Z,5.30
2023-04-21T11:59:59.483Z,5.90
2023-04-21T12:02:35.614Z,5.40
2023-04-21T12:05:04.411Z,5.17
2023-04-21T12:07:32.666Z,5.60
2023-04-21T12:10:00.494Z,5.10
2023-04-21T12:12:27.780Z,5.50
2023-04-21T12:14:55.251Z,5.23
2023-04-21T12:17:22.479Z,5.23
2023-04-21T12:19:49.835Z,4.87
2023-04-21T12:22:23.494Z,5.60
2023-04-21T12:24:50.370Z,5.33
2023-04-21T12:27:17.219Z,5.20
2023-04-21T12:29:44.001Z,5.80
2023-04-21T12:32:11.148Z,5.47
2023-04-21T12:34:38.042Z,5.20
2023-04-21T12:37:05.001Z,5.53
2023-04-21T12:39:32.288Z,6.03
2023-04-21T12:41:59.596Z,5.20
2023-04-21T12:44:26.403Z,5.67
2023-04-21T12:46:53.638Z,5.60
2023-04-21T12:49:20.673Z,5.53
2023-04-21T12:51:48.953Z,5.80
2023-04-21T12:54:16.029Z,5.50
2023-04-21T12:56:43.292Z,5.50
2023-04-21T12:59:11.201Z,5.10
2023-04-21T13:01:39.244Z,5.53
2023-04-21T13:04:06.353Z,5.93
2023-04-21T13:06:33.807Z,5.57
2023-04-21T13:09:00.891Z,5.70
2023-04-21T13:11:27.906Z,5.77
2023-04-21T13:13:54.964Z,5.93
2023-04-21T13:16:22.674Z,6.00
2023-04-21T13:18:49.581Z,5.77
2023-04-21T13:21:16.712Z,5.50
2023-04-21T13:23:43.897Z,5.70
2023-04-21T13:26:10.935Z,5.50
2023-04-21T13:28:37.937Z,5.47
2023-04-21T13:31:05.183Z,6.20
2023-04-21T13:33:34.980Z,6.77
2023-04-21T13:36:03.534Z,5.87
2023-04-21T13:38:30.748Z,5.87
2023-04-21T13:40:57.948Z,5.37
2023-04-21T13:43:24.760Z,6.00
2023-04-21T13:45:52.426Z,5.83
2023-04-21T13:48:21.227Z,6.40
2023-04-21T13:50:49.222Z,6.10
2023-04-21T13:53:21.121Z,6.00
2023-04-21T13:55:48.633Z,6.23
2023-04-21T13:58:16.668Z,5.90
2023-04-21T14:00:43.683Z,6.10
2023-04-21T14:03:11.620Z,6.07
2023-04-21T14:05:39.224Z,6.07
2023-04-21T14:08:06.417Z,6.43
2023-04-21T14:10:33.349Z,5.87
2023-04-21T14:13:00.308Z,6.83
2023-04-21T14:15:27.135Z,7.03
2023-04-21T14:17:54.099Z,6.93
2023-04-21T14:20:21.149Z,5.97
2023-04-21T14:22:48.224Z,6.53
2023-04-21T14:25:15.175Z,6.67
2023-04-21T14:27:42.020Z,6.13
2023-04-21T14:30:10.535Z,6.23
2023-04-21T14:32:37.505Z,6.60
2023-04-21T14:35:05.590Z,6.87
2023-04-21T14:37:33.158Z,6.77
2023-04-21T14:40:00.051Z,6.37
2023-04-21T14:42:27.005Z,5.83
2023-04-21T14:44:54.074Z,6.13
2023-04-21T14:47:21.967Z,6.30
2023-04-21T14:49:55.029Z,6.10
2023-04-21T14:52:24.640Z,6.30
2023-04-21T14:54:51.629Z,6.70
2023-04-21T14:57:21.079Z,6.57
2023-04-21T14:59:52.277Z,6.53
2023-04-21T15:02:20.655Z,6.27
2023-04-21T15:04:47.699Z,6.90
2023-04-21T15:07:16.271Z,7.17
2023-04-21T15:09:45.829Z,7.00
2023-04-21T15:12:14.688Z,7.17
2023-04-21T15:14:41.632Z,6.97
2023-04-21T15:17:08.795Z,6.93
2023-04-21T15:19:36.515Z,6.37
2023-04-21T15:22:04.828Z,6.27
2023-04-21T15:24:31.941Z,6.57
2023-04-21T15:26:58.823Z,6.97
2023-04-21T15:29:25.641Z,6.80
2023-04-21T15:31:52.490Z,6.23
2023-04-21T15:34:19.378Z,6.80
2023-04-21T15:36:46.112Z,6.43
2023-04-21T15:39:15.668Z,6.73
2023-04-21T15:41:42.416Z,7.10
2023-04-21T15:44:09.188Z,7.17
2023-04-21T15:46:36.129Z,6.67
2023-04-21T15:49:03.275Z,6.83
2023-04-21T15:51:30.066Z,6.73
2023-04-21T15:53:56.820Z,6.77
2023-04-21T15:56:26.840Z,6.70
2023-04-21T15:58:53.612Z,6.90
2023-04-21T16:01:21.904Z,6.27
2023-04-21T16:03:49.420Z,7.00
2023-04-21T16:06:21.403Z,7.63
2023-04-21T16:08:48.329Z,6.67
2023-04-21T16:11:15.340Z,6.87
2023-04-21T16:13:42.432Z,6.50
2023-04-21T16:16:09.451Z,6.30
2023-04-21T16:18:36.233Z,7.50
2023-04-21T16:21:03.394Z,7.00
2023-04-21T16:23:30.347Z,7.00
2023-04-21T16:25:57.147Z,6.93
2023-04-21T16:28:23.976Z,6.87
2023-04-21T16:30:50.732Z,6.73
2023-04-21T16:33:17.534Z,7.10
2023-04-21T16:35:44.428Z,7.33
2023-04-21T16:38:11.680Z,7.57
2023-04-21T16:40:38.655Z,7.00
2023-04-21T16:43:05.409Z,6.73
2023-04-21T16:45:32.286Z,7.07
2023-04-21T16:47:59.110Z,6.83
2023-04-21T16:50:26.884Z,7.10
2023-04-21T16:52:53.990Z,6.90
2023-04-21T16:55:21.013Z,6.77
2023-04-21T16:57:48.326Z,6.90
2023-04-21T17:00:15.476Z,7.47
2023-04-21T17:02:42.428Z,6.87
2023-04-21T17:05:09.864Z,6.33
2023-04-21T17:07:39.374Z,7.37
2023-04-21T17:10:07.400Z,6.23
2023-04-21T17:12:34.175Z,7.13
2023-04-21T17:15:00.959Z,7.03
2023-04-21T17:17:33.520Z,6.57
2023-04-21T17:20:01.116Z,6.63
2023-04-21T17:22:28.159Z,6.10
2023-04-21T17:24:55.425Z,6.00
2023-04-21T17:27:22.764Z,6.23
2023-04-21T17:29:50.004Z,6.03
2023-04-21T17:32:17.242Z,5.97
2023-04-21T17:34:44.519Z,5.97
2023-04-21T17:37:12.138Z,5.40
2023-04-21T17:39:39.046Z,5.00
2023-04-21T17:42:05.901Z,5.70
2023-04-21T17:44:33.041Z,5.23
2023-04-21T17:47:08.139Z,4.83
2023-04-21T17:49:36.952Z,5.10
2023-04-21T17:52:04.009Z,4.80
2023-04-21T17:54:30.894Z,4.80
2023-04-21T17:56:58.210Z,4.90
2023-04-21T17:59:25.693Z,4.43
2023-04-21T18:01:52.450Z,4.70
2023-04-21T18:04:19.406Z,4.50
2023-04-21T18:06:46.484Z,4.30
2023-04-21T18:09:13.282Z,4.80
2023-04-21T18:11:40.123Z,4.10
2023-04-21T18:14:07.584Z,4.43
2023-04-21T18:16:34.764Z,4.10
2023-04-21T18:19:01.697Z,4.43
2023-04-21T18:21:28.740Z,5.50
2023-04-21T18:23:56.084Z,6.00
2023-04-21T18:26:22.991Z,4.37
2023-04-21T18:28:49.757Z,4.63
2023-04-21T18:31:16.634Z,4.63
2023-04-21T18:33:43.748Z,4.30
2023-04-21T18:36:11.116Z,4.03
2023-04-21T18:38:38.426Z,3.77
2023-04-21T18:41:05.206Z,3.90
2023-04-21T18:43:34.507Z,4.33
2023-04-21T18:46:01.275Z,4.20
2023-04-21T18:48:28.146Z,3.60
2023-04-21T18:50:54.985Z,3.37
2023-04-21T18:53:21.701Z,3.40
2023-04-21T18:55:48.579Z,3.53
2023-04-21T18:58:16.070Z,3.87
2023-04-21T19:00:42.828Z,3.07
2023-04-21T19:03:10.259Z,3.23
2023-04-21T19:05:38.954Z,3.13
2023-04-21T19:08:05.876Z,3.93
2023-04-21T19:10:34.645Z,3.40
2023-04-21T19:13:01.563Z,3.23
2023-04-21T19:15:28.362Z,3.57
2023-04-21T19:17:56.107Z,3.10
2023-04-21T19:20:22.933Z,3.30
2023-04-21T19:22:49.677Z,2.90
2023-04-21T19:25:17.563Z,3.03
2023-04-21T19:27:44.573Z,3.53
2023-04-21T19:30:11.565Z,3.10
2023-04-21T19:32:38.658Z,3.40
2023-04-21T19:35:05.863Z,2.77
2023-04-21T19:37:35.039Z,3.53
2023-04-21T19:40:03.415Z,3.40
2023-04-21T19:42:30.601Z,3.47
2023-04-21T19:44:57.446Z,3.13
2023-04-21T19:47:27.412Z,3.33
2023-04-21T19:49:54.142Z,3.13
2023-04-21T19:52:22.460Z,3.07
2023-04-21T19:54:49.190Z,3.03
2023-04-21T19:57:16.158Z,3.50
2023-04-21T19:59:43.153Z,3.20
2023-04-21T20:02:10.264Z,3.73
2023-04-21T20:04:37.549Z,3.13
2023-04-21T20:07:04.946Z,3.13
2023-04-21T20:09:32.399Z,3.67
2023-04-21T20:11:59.169Z,3.57
2023-04-21T20:14:25.930Z,3.57
2023-04-21T20:16:52.561Z,2.80
2023-04-21T20:19:22.878Z,2.97
2023-04-21T20:21:50.141Z,2.83
2023-04-21T20:24:17.592Z,2.63
2023-04-21T20:26:44.891Z,3.10
2023-04-21T20:29:11.769Z,2.90
2023-04-21T20:31:38.651Z,2.80
2023-04-21T20:34:05.538Z,2.87
2023-04-21T20:36:32.616Z,2.90
2023-04-21T20:39:00.627Z,2.73
2023-04-21T20:41:27.932Z,2.90
2023-04-21T20:43:56.251Z,3.20
2023-04-21T20:46:23.847Z,3.00
2023-04-21T20:48:51.514Z,2.93
2023-04-21T20:51:18.488Z,3.10
2023-04-21T20:53:46.026Z,2.83
2023-04-21T20:56:13.696Z,2.50
2023-04-21T20:58:41.701Z,2.93
2023-04-21T21:01:08.496Z,2.70
2023-04-21T21:03:35.866Z,3.33
2023-04-21T21:06:02.822Z,3.37
2023-04-21T21:08:29.696Z,2.67
2023-04-21T21:10:56.494Z,3.67
2023-04-21T21:13:23.307Z,2.97
2023-04-21T21:15:50.338Z,2.97
2023-04-21T21:18:17.138Z,3.03
2023-04-21T21:20:44.101Z,2.73
2023-04-21T21:23:11.874Z,2.77
2023-04-21T21:25:38.948Z,3.10
2023-04-21T21:28:06.383Z,3.07
2023-04-21T21:30:33.280Z,2.73
2023-04-21T21:33:00.026Z,2.70
2023-04-21T21:35:27.949Z,3.47
2023-04-21T21:37:58.199Z,3.23
2023-04-21T21:40:24.961Z,2.73
2023-04-21T21:42:51.727Z,2.43
2023-04-21T21:45:18.444Z,2.83
2023-04-21T21:47:45.972Z,2.77
2023-04-21T21:50:12.846Z,2.87
2023-04-21T21:52:40.313Z,2.80
2023-04-21T21:55:08.276Z,3.27
2023-04-21T21:57:35.590Z,2.67
2023-04-21T22:00:04.456Z,2.70
2023-04-21T22:02:31.343Z,2.57
2023-04-21T22:04:58.355Z,2.63
2023-04-21T22:07:25.281Z,2.80
2023-04-21T22:09:53.177Z,3.07
2023-04-21T22:12:20.023Z,2.60
2023-04-21T22:14:48.192Z,2.77
2023-04-21T22:17:16.130Z,3.10
2023-04-21T22:19:43.215Z,3.10
2023-04-21T22:22:13.274Z,2.60
2023-04-21T22:24:40.366Z,2.90
2023-04-21T22:27:07.086Z,3.53
2023-04-21T22:29:34.151Z,3.03
2023-04-21T22:32:02.486Z,2.70
2023-04-21T22:34:29.252Z,2.90
2023-04-21T22:36:57.758Z,2.60
2023-04-21T22:39:28.689Z,2.80
2023-04-21T22:41:55.679Z,2.43
2023-04-21T22:44:22.975Z,2.70
2023-04-21T22:46:51.955Z,2.50
2023-04-21T22:49:19.032Z,2.57
2023-04-21T22:51:47.341Z,3.03
2023-04-21T22:54:14.016Z,2.50
2023-04-21T22:56:41.364Z,2.70
2023-04-21T22:59:08.259Z,2.80
2023-04-21T23:01:35.618Z,2.73
2023-04-21T23:04:03.624Z,2.67
2023-04-21T23:06:32.187Z,2.73
2023-04-21T23:08:58.886Z,2.70
2023-04-21T23:11:25.822Z,2.80
2023-04-21T23:13:52.566Z,2.97
2023-04-21T23:16:19.882Z,2.77
2023-04-21T23:18:47.859Z,2.73
2023-04-21T23:21:14.791Z,2.60
2023-04-21T23:23:41.813Z,2.67
2023-04-21T23:26:08.551Z,2.50
2023-04-21T23:28:35.970Z,3.10
2023-04-21T23:31:02.789Z,2.90
2023-04-21T23:33:29.506Z,3.17
2023-04-21T23:35:56.501Z,2.73
2023-04-21T23:38:23.150Z,2.80
2023-04-21T23:40:50.512Z,2.80
2023-04-21T23:43:17.520Z,3.00
2023-04-21T23:45:44.349Z,2.87
2023-04-21T23:48:11.736Z,3.20
2023-04-21T23:50:38.598Z,3.00
2023-04-21T23:53:05.729Z,3.07
2023-04-21T23:55:32.475Z,3.00
2023-04-21T23:57:59.175Z,3.00
